sensor_id;sensor_type;location;lat;lon;timestamp;temperature;humidity
9177;DHT22;4623;54.310;10.112;2022-08-06T00:02:18;15.40;99.90
9177;DHT22;4623;54.310;10.112;2022-08-06T00:04:46;15.30;99.90
9177;DHT22;4623;54.310;10.112;2022-08-06T00:07:12;15.30;99.90
9177;DHT22;4623;54.310;10.112;2022-08-06T00:09:38;15.30;99.90
9177;DHT22;4623;54.310;10.112;2022-08-06T00:12:04;15.40;99.90
9177;DHT22;4623;54.310;10.112;2022-08-06T00:14:31;15.40;99.90
9177;DHT22;4623;54.310;10.112;2022-08-06T00:16:57;15.30;99.90
9177;DHT22;4623;54.310;10.112;2022-08-06T00:19:23;15.40;99.90
9177;DHT22;4623;54.310;10.112;2022-08-06T00:21:50;15.40;99.90
9177;DHT22;4623;54.310;10.112;2022-08-06T00:24:15;15.20;99.90
9177;DHT22;4623;54.310;10.112;2022-08-06T00:26:41;14.90;99.90
9177;DHT22;4623;54.310;10.112;2022-08-06T00:29:07;14.80;99.90
9177;DHT22;4623;54.310;10.112;2022-08-06T00:31:33;14.90;99.90
9177;DHT22;4623;54.310;10.112;2022-08-06T00:34:00;14.80;99.90
9177;DHT22;4623;54.310;10.112;2022-08-06T00:36:28;15.00;99.90
9177;DHT22;4623;54.310;10.112;2022-08-06T00:38:55;15.10;99.90
9177;DHT22;4623;54.310;10.112;2022-08-06T00:41:22;15.10;99.90
9177;DHT22;4623;54.310;10.112;2022-08-06T00:43:48;15.20;99.90
9177;DHT22;4623;54.310;10.112;2022-08-06T00:46:14;15.20;99.90
9177;DHT22;4623;54.310;10.112;2022-08-06T00:48:39;15.20;99.90
9177;DHT22;4623;54.310;10.112;2022-08-06T00:51:05;15.20;99.90
9177;DHT22;4623;54.310;10.112;2022-08-06T00:53:31;15.20;99.90
9177;DHT22;4623;54.310;10.112;2022-08-06T00:55:57;15.20;99.90
9177;DHT22;4623;54.310;10.112;2022-08-06T00:58:23;15.20;99.90
9177;DHT22;4623;54.310;10.112;2022-08-06T01:00:48;15.20;99.90
9177;DHT22;4623;54.310;10.112;2022-08-06T01:03:14;15.20;99.90
9177;DHT22;4623;54.310;10.112;2022-08-06T01:05:42;15.20;99.90
9177;DHT22;4623;54.310;10.112;2022-08-06T01:08:09;15.10;99.90
9177;DHT22;4623;54.310;10.112;2022-08-06T01:10:35;15.20;99.90
9177;DHT22;4623;54.310;10.112;2022-08-06T01:13:00;15.10;99.90
9177;DHT22;4623;54.310;10.112;2022-08-06T01:15:26;15.10;99.90
9177;DHT22;4623;54.310;10.112;2022-08-06T01:18:07;15.10;99.90
9177;DHT22;4623;54.310;10.112;2022-08-06T01:23:46;15.10;99.90
9177;DHT22;4623;54.310;10.112;2022-08-06T01:26:29;15.10;99.90
9177;DHT22;4623;54.310;10.112;2022-08-06T01:29:15;15.10;99.90
9177;DHT22;4623;54.310;10.112;2022-08-06T01:31:51;15.10;99.90
9177;DHT22;4623;54.310;10.112;2022-08-06T01:34:22;15.10;99.90
9177;DHT22;4623;54.310;10.112;2022-08-06T01:36:58;15.00;99.90
9177;DHT22;4623;54.310;10.112;2022-08-06T01:39:26;15.00;99.90
9177;DHT22;4623;54.310;10.112;2022-08-06T01:41:54;15.10;99.90
9177;DHT22;4623;54.310;10.112;2022-08-06T01:44:22;15.10;99.90
9177;DHT22;4623;54.310;10.112;2022-08-06T01:46:55;15.10;99.90
9177;DHT22;4623;54.310;10.112;2022-08-06T01:49:25;15.00;99.90
9177;DHT22;4623;54.310;10.112;2022-08-06T01:51:54;15.00;99.90
9177;DHT22;4623;54.310;10.112;2022-08-06T01:54:22;15.00;99.90
9177;DHT22;4623;54.310;10.112;2022-08-06T01:56:51;15.00;99.90
9177;DHT22;4623;54.310;10.112;2022-08-06T01:59:20;14.90;99.90
9177;DHT22;4623;54.310;10.112;2022-08-06T02:01:49;14.90;99.90
9177;DHT22;4623;54.310;10.112;2022-08-06T02:04:18;14.90;99.90
9177;DHT22;4623;54.310;10.112;2022-08-06T02:06:46;14.90;99.90
9177;DHT22;4623;54.310;10.112;2022-08-06T02:09:16;14.90;99.90
9177;DHT22;4623;54.310;10.112;2022-08-06T02:11:44;14.90;99.90
9177;DHT22;4623;54.310;10.112;2022-08-06T02:14:13;14.90;99.90
9177;DHT22;4623;54.310;10.112;2022-08-06T02:16:41;14.80;99.90
9177;DHT22;4623;54.310;10.112;2022-08-06T02:19:09;14.90;99.90
9177;DHT22;4623;54.310;10.112;2022-08-06T02:21:36;14.80;99.90
9177;DHT22;4623;54.310;10.112;2022-08-06T02:24:06;14.80;99.90
9177;DHT22;4623;54.310;10.112;2022-08-06T02:26:35;14.80;99.90
9177;DHT22;4623;54.310;10.112;2022-08-06T02:29:06;14.80;99.90
9177;DHT22;4623;54.310;10.112;2022-08-06T02:31:32;14.80;99.90
9177;DHT22;4623;54.310;10.112;2022-08-06T02:33:58;14.70;99.90
9177;DHT22;4623;54.310;10.112;2022-08-06T02:36:27;14.70;99.90
9177;DHT22;4623;54.310;10.112;2022-08-06T02:39:09;14.70;99.90
9177;DHT22;4623;54.310;10.112;2022-08-06T02:44:40;14.70;99.90
9177;DHT22;4623;54.310;10.112;2022-08-06T02:47:12;14.70;99.90
9177;DHT22;4623;54.310;10.112;2022-08-06T02:49:41;14.60;99.90
9177;DHT22;4623;54.310;10.112;2022-08-06T02:52:16;14.50;99.90
9177;DHT22;4623;54.310;10.112;2022-08-06T02:55:09;14.50;99.90
9177;DHT22;4623;54.310;10.112;2022-08-06T02:57:36;14.50;99.90
9177;DHT22;4623;54.310;10.112;2022-08-06T03:00:06;14.50;99.90
9177;DHT22;4623;54.310;10.112;2022-08-06T03:02:35;14.50;99.90
9177;DHT22;4623;54.310;10.112;2022-08-06T03:05:03;14.60;99.90
9177;DHT22;4623;54.310;10.112;2022-08-06T03:07:31;14.60;99.90
9177;DHT22;4623;54.310;10.112;2022-08-06T03:10:00;14.60;99.90
9177;DHT22;4623;54.310;10.112;2022-08-06T03:12:26;14.60;99.90
9177;DHT22;4623;54.310;10.112;2022-08-06T03:14:53;14.60;99.90
9177;DHT22;4623;54.310;10.112;2022-08-06T03:17:20;14.50;99.90
9177;DHT22;4623;54.310;10.112;2022-08-06T03:19:46;14.50;99.90
9177;DHT22;4623;54.310;10.112;2022-08-06T03:22:14;14.50;99.90
9177;DHT22;4623;54.310;10.112;2022-08-06T03:24:41;14.50;99.90
9177;DHT22;4623;54.310;10.112;2022-08-06T03:27:09;14.50;99.90
9177;DHT22;4623;54.310;10.112;2022-08-06T03:29:37;14.50;99.90
9177;DHT22;4623;54.310;10.112;2022-08-06T03:32:04;14.50;99.90
9177;DHT22;4623;54.310;10.112;2022-08-06T03:34:30;14.50;99.90
9177;DHT22;4623;54.310;10.112;2022-08-06T03:37:00;14.50;99.90
9177;DHT22;4623;54.310;10.112;2022-08-06T03:39:27;14.50;99.90
9177;DHT22;4623;54.310;10.112;2022-08-06T03:41:54;14.50;99.90
9177;DHT22;4623;54.310;10.112;2022-08-06T03:44:21;14.50;99.90
9177;DHT22;4623;54.310;10.112;2022-08-06T03:47:21;14.60;99.90
9177;DHT22;4623;54.310;10.112;2022-08-06T03:49:59;14.60;99.90
9177;DHT22;4623;54.310;10.112;2022-08-06T03:52:29;14.50;99.90
9177;DHT22;4623;54.310;10.112;2022-08-06T03:55:01;14.50;99.90
9177;DHT22;4623;54.310;10.112;2022-08-06T03:57:32;14.50;99.90
9177;DHT22;4623;54.310;10.112;2022-08-06T03:59:59;14.50;99.90
9177;DHT22;4623;54.310;10.112;2022-08-06T04:02:38;14.50;99.90
9177;DHT22;4623;54.310;10.112;2022-08-06T04:05:05;14.40;99.90
9177;DHT22;4623;54.310;10.112;2022-08-06T04:07:33;14.40;99.90
9177;DHT22;4623;54.310;10.112;2022-08-06T04:10:00;14.40;99.90
9177;DHT22;4623;54.310;10.112;2022-08-06T04:12:27;14.40;99.90
9177;DHT22;4623;54.310;10.112;2022-08-06T04:14:54;14.40;99.90
9177;DHT22;4623;54.310;10.112;2022-08-06T04:17:22;14.40;99.90
9177;DHT22;4623;54.310;10.112;2022-08-06T04:19:48;14.40;99.90
9177;DHT22;4623;54.310;10.112;2022-08-06T04:22:14;14.40;99.90
9177;DHT22;4623;54.310;10.112;2022-08-06T04:24:40;14.40;99.90
9177;DHT22;4623;54.310;10.112;2022-08-06T04:27:07;14.40;99.90
9177;DHT22;4623;54.310;10.112;2022-08-06T04:29:38;14.30;99.90
9177;DHT22;4623;54.310;10.112;2022-08-06T04:32:05;14.40;99.90
9177;DHT22;4623;54.310;10.112;2022-08-06T04:34:31;14.40;99.90
9177;DHT22;4623;54.310;10.112;2022-08-06T04:37:00;14.40;99.90
9177;DHT22;4623;54.310;10.112;2022-08-06T04:39:27;14.50;99.90
9177;DHT22;4623;54.310;10.112;2022-08-06T04:41:53;14.50;99.90
9177;DHT22;4623;54.310;10.112;2022-08-06T04:44:20;14.50;99.90
9177;DHT22;4623;54.310;10.112;2022-08-06T04:46:46;14.50;99.90
9177;DHT22;4623;54.310;10.112;2022-08-06T04:49:17;14.50;99.90
9177;DHT22;4623;54.310;10.112;2022-08-06T04:51:47;14.50;99.90
9177;DHT22;4623;54.310;10.112;2022-08-06T04:54:14;14.60;99.90
9177;DHT22;4623;54.310;10.112;2022-08-06T04:56:40;14.60;99.90
9177;DHT22;4623;54.310;10.112;2022-08-06T04:59:06;14.70;99.90
9177;DHT22;4623;54.310;10.112;2022-08-06T05:01:32;14.70;99.90
9177;DHT22;4623;54.310;10.112;2022-08-06T05:03:58;14.80;99.90
9177;DHT22;4623;54.310;10.112;2022-08-06T05:06:40;14.70;99.90
9177;DHT22;4623;54.310;10.112;2022-08-06T05:09:11;14.70;99.90
9177;DHT22;4623;54.310;10.112;2022-08-06T05:11:45;14.60;99.90
9177;DHT22;4623;54.310;10.112;2022-08-06T05:14:20;14.60;99.90
9177;DHT22;4623;54.310;10.112;2022-08-06T05:16:50;14.80;99.90
9177;DHT22;4623;54.310;10.112;2022-08-06T05:19:21;15.30;99.90
9177;DHT22;4623;54.310;10.112;2022-08-06T05:21:49;15.80;99.90
9177;DHT22;4623;54.310;10.112;2022-08-06T05:24:17;15.80;99.90
9177;DHT22;4623;54.310;10.112;2022-08-06T05:26:43;15.50;99.90
9177;DHT22;4623;54.310;10.112;2022-08-06T05:29:09;15.40;99.90
9177;DHT22;4623;54.310;10.112;2022-08-06T05:31:37;15.50;99.90
9177;DHT22;4623;54.310;10.112;2022-08-06T05:34:06;15.60;99.90
9177;DHT22;4623;54.310;10.112;2022-08-06T05:36:34;15.50;99.90
9177;DHT22;4623;54.310;10.112;2022-08-06T05:38:59;15.60;99.90
9177;DHT22;4623;54.310;10.112;2022-08-06T05:41:26;15.70;99.90
9177;DHT22;4623;54.310;10.112;2022-08-06T05:43:52;15.70;99.90
9177;DHT22;4623;54.310;10.112;2022-08-06T05:46:20;15.80;99.90
9177;DHT22;4623;54.310;10.112;2022-08-06T05:48:55;16.00;99.90
9177;DHT22;4623;54.310;10.112;2022-08-06T05:51:34;16.10;99.90
9177;DHT22;4623;54.310;10.112;2022-08-06T05:54:16;16.20;99.90
9177;DHT22;4623;54.310;10.112;2022-08-06T05:56:44;16.10;99.90
9177;DHT22;4623;54.310;10.112;2022-08-06T05:59:18;16.00;99.90
9177;DHT22;4623;54.310;10.112;2022-08-06T06:01:45;15.90;99.90
9177;DHT22;4623;54.310;10.112;2022-08-06T06:04:12;16.00;99.90
9177;DHT22;4623;54.310;10.112;2022-08-06T06:06:38;16.10;99.90
9177;DHT22;4623;54.310;10.112;2022-08-06T06:09:05;16.20;99.90
9177;DHT22;4623;54.310;10.112;2022-08-06T06:11:32;16.30;99.90
9177;DHT22;4623;54.310;10.112;2022-08-06T06:13:57;16.40;99.90
9177;DHT22;4623;54.310;10.112;2022-08-06T06:16:51;16.40;99.90
9177;DHT22;4623;54.310;10.112;2022-08-06T06:22:13;16.50;99.90
9177;DHT22;4623;54.310;10.112;2022-08-06T06:24:55;16.50;99.90
9177;DHT22;4623;54.310;10.112;2022-08-06T06:27:24;16.60;99.90
9177;DHT22;4623;54.310;10.112;2022-08-06T06:30:04;16.60;99.90
9177;DHT22;4623;54.310;10.112;2022-08-06T06:32:58;16.80;99.90
9177;DHT22;4623;54.310;10.112;2022-08-06T06:35:53;16.80;99.90
9177;DHT22;4623;54.310;10.112;2022-08-06T06:44:02;16.90;99.90
9177;DHT22;4623;54.310;10.112;2022-08-06T06:47:15;17.00;99.90
9177;DHT22;4623;54.310;10.112;2022-08-06T06:51:51;17.00;99.90
9177;DHT22;4623;54.310;10.112;2022-08-06T06:54:32;16.90;99.90
9177;DHT22;4623;54.310;10.112;2022-08-06T06:57:01;17.00;99.90
9177;DHT22;4623;54.310;10.112;2022-08-06T06:59:35;17.10;99.90
9177;DHT22;4623;54.310;10.112;2022-08-06T07:02:03;17.20;99.90
9177;DHT22;4623;54.310;10.112;2022-08-06T07:04:30;17.20;99.90
9177;DHT22;4623;54.310;10.112;2022-08-06T07:06:58;17.40;99.90
9177;DHT22;4623;54.310;10.112;2022-08-06T07:09:27;17.50;99.90
9177;DHT22;4623;54.310;10.112;2022-08-06T07:11:55;17.40;99.90
9177;DHT22;4623;54.310;10.112;2022-08-06T07:14:23;17.40;99.90
9177;DHT22;4623;54.310;10.112;2022-08-06T07:16:52;17.50;99.90
9177;DHT22;4623;54.310;10.112;2022-08-06T07:19:21;17.60;99.90
9177;DHT22;4623;54.310;10.112;2022-08-06T07:21:47;17.70;99.90
9177;DHT22;4623;54.310;10.112;2022-08-06T07:24:15;17.80;99.90
9177;DHT22;4623;54.310;10.112;2022-08-06T07:26:44;17.80;99.90
9177;DHT22;4623;54.310;10.112;2022-08-06T07:29:11;17.80;99.90
9177;DHT22;4623;54.310;10.112;2022-08-06T07:31:38;17.80;99.90
9177;DHT22;4623;54.310;10.112;2022-08-06T07:34:04;17.90;99.90
9177;DHT22;4623;54.310;10.112;2022-08-06T07:36:37;17.80;99.90
9177;DHT22;4623;54.310;10.112;2022-08-06T07:39:06;17.90;99.90
9177;DHT22;4623;54.310;10.112;2022-08-06T07:41:34;18.00;99.90
9177;DHT22;4623;54.310;10.112;2022-08-06T07:44:02;18.10;99.90
9177;DHT22;4623;54.310;10.112;2022-08-06T07:46:38;18.40;99.90
9177;DHT22;4623;54.310;10.112;2022-08-06T07:49:06;18.40;99.90
9177;DHT22;4623;54.310;10.112;2022-08-06T07:51:34;18.40;99.90
9177;DHT22;4623;54.310;10.112;2022-08-06T07:54:05;18.40;99.90
9177;DHT22;4623;54.310;10.112;2022-08-06T07:56:32;18.60;99.90
9177;DHT22;4623;54.310;10.112;2022-08-06T07:59:00;18.60;99.90
9177;DHT22;4623;54.310;10.112;2022-08-06T08:01:26;18.60;99.90
9177;DHT22;4623;54.310;10.112;2022-08-06T08:03:53;18.70;99.90
9177;DHT22;4623;54.310;10.112;2022-08-06T08:06:59;18.80;99.90
9177;DHT22;4623;54.310;10.112;2022-08-06T08:09:26;18.60;99.90
9177;DHT22;4623;54.310;10.112;2022-08-06T08:11:52;18.80;99.90
9177;DHT22;4623;54.310;10.112;2022-08-06T08:14:20;18.90;99.90
9177;DHT22;4623;54.310;10.112;2022-08-06T08:16:46;19.10;99.90
9177;DHT22;4623;54.310;10.112;2022-08-06T08:19:29;19.20;99.90
9177;DHT22;4623;54.310;10.112;2022-08-06T08:22:00;19.30;99.90
9177;DHT22;4623;54.310;10.112;2022-08-06T08:24:28;19.70;99.90
9177;DHT22;4623;54.310;10.112;2022-08-06T08:26:55;19.80;99.90
9177;DHT22;4623;54.310;10.112;2022-08-06T08:29:21;19.80;99.90
9177;DHT22;4623;54.310;10.112;2022-08-06T08:31:46;19.60;99.90
9177;DHT22;4623;54.310;10.112;2022-08-06T08:34:12;19.50;99.90
9177;DHT22;4623;54.310;10.112;2022-08-06T08:36:39;19.40;99.90
9177;DHT22;4623;54.310;10.112;2022-08-06T08:39:05;19.40;99.90
9177;DHT22;4623;54.310;10.112;2022-08-06T08:41:37;19.40;99.90
9177;DHT22;4623;54.310;10.112;2022-08-06T08:44:06;19.50;99.90
9177;DHT22;4623;54.310;10.112;2022-08-06T08:46:42;19.60;99.90
9177;DHT22;4623;54.310;10.112;2022-08-06T08:49:18;19.70;99.90
9177;DHT22;4623;54.310;10.112;2022-08-06T08:51:45;19.60;99.90
9177;DHT22;4623;54.310;10.112;2022-08-06T08:54:16;19.50;99.90
9177;DHT22;4623;54.310;10.112;2022-08-06T08:56:42;19.30;99.90
9177;DHT22;4623;54.310;10.112;2022-08-06T08:59:09;19.10;99.90
9177;DHT22;4623;54.310;10.112;2022-08-06T09:01:35;19.00;99.90
9177;DHT22;4623;54.310;10.112;2022-08-06T09:04:03;19.20;99.90
9177;DHT22;4623;54.310;10.112;2022-08-06T09:06:29;19.30;99.90
9177;DHT22;4623;54.310;10.112;2022-08-06T09:08:55;19.60;99.90
9177;DHT22;4623;54.310;10.112;2022-08-06T09:11:22;19.80;99.90
9177;DHT22;4623;54.310;10.112;2022-08-06T09:13:48;19.90;99.90
9177;DHT22;4623;54.310;10.112;2022-08-06T09:16:13;20.00;99.90
9177;DHT22;4623;54.310;10.112;2022-08-06T09:18:39;20.30;99.90
9177;DHT22;4623;54.310;10.112;2022-08-06T09:21:05;20.60;99.90
9177;DHT22;4623;54.310;10.112;2022-08-06T09:23:31;20.80;99.90
9177;DHT22;4623;54.310;10.112;2022-08-06T09:25:56;20.90;99.90
9177;DHT22;4623;54.310;10.112;2022-08-06T09:28:36;21.50;99.90
9177;DHT22;4623;54.310;10.112;2022-08-06T09:31:04;21.80;95.20
9177;DHT22;4623;54.310;10.112;2022-08-06T09:33:33;21.60;93.00
9177;DHT22;4623;54.310;10.112;2022-08-06T09:36:00;21.70;96.90
9177;DHT22;4623;54.310;10.112;2022-08-06T09:38:27;22.10;96.70
9177;DHT22;4623;54.310;10.112;2022-08-06T09:41:08;22.40;94.00
9177;DHT22;4623;54.310;10.112;2022-08-06T09:43:35;22.90;89.10
9177;DHT22;4623;54.310;10.112;2022-08-06T09:46:00;23.40;78.30
9177;DHT22;4623;54.310;10.112;2022-08-06T09:48:26;24.20;81.70
9177;DHT22;4623;54.310;10.112;2022-08-06T09:50:51;25.00;65.50
9177;DHT22;4623;54.310;10.112;2022-08-06T09:53:17;25.90;65.10
9177;DHT22;4623;54.310;10.112;2022-08-06T09:55:44;26.40;70.30
9177;DHT22;4623;54.310;10.112;2022-08-06T09:58:10;26.40;57.80
9177;DHT22;4623;54.310;10.112;2022-08-06T10:00:37;26.20;56.90
9177;DHT22;4623;54.310;10.112;2022-08-06T10:03:07;26.30;53.10
9177;DHT22;4623;54.310;10.112;2022-08-06T10:05:33;26.30;52.90
9177;DHT22;4623;54.310;10.112;2022-08-06T10:08:09;26.90;52.30
9177;DHT22;4623;54.310;10.112;2022-08-06T10:10:43;26.90;48.70
9177;DHT22;4623;54.310;10.112;2022-08-06T10:13:26;27.40;49.50
9177;DHT22;4623;54.310;10.112;2022-08-06T10:15:54;27.40;45.70
9177;DHT22;4623;54.310;10.112;2022-08-06T10:18:33;27.40;47.30
9177;DHT22;4623;54.310;10.112;2022-08-06T10:21:01;27.60;46.30
9177;DHT22;4623;54.310;10.112;2022-08-06T10:23:30;27.90;46.40
9177;DHT22;4623;54.310;10.112;2022-08-06T10:25:56;27.30;48.20
9177;DHT22;4623;54.310;10.112;2022-08-06T10:28:26;27.20;45.40
9177;DHT22;4623;54.310;10.112;2022-08-06T10:30:53;25.90;45.90
9177;DHT22;4623;54.310;10.112;2022-08-06T10:33:19;26.30;45.00
9177;DHT22;4623;54.310;10.112;2022-08-06T10:35:46;27.30;46.30
9177;DHT22;4623;54.310;10.112;2022-08-06T10:38:15;27.50;43.30
9177;DHT22;4623;54.310;10.112;2022-08-06T10:40:43;27.80;42.90
9177;DHT22;4623;54.310;10.112;2022-08-06T10:43:10;27.50;46.30
9177;DHT22;4623;54.310;10.112;2022-08-06T10:45:36;28.10;44.20
9177;DHT22;4623;54.310;10.112;2022-08-06T10:48:04;28.30;46.30
9177;DHT22;4623;54.310;10.112;2022-08-06T10:50:30;27.20;44.80
9177;DHT22;4623;54.310;10.112;2022-08-06T10:52:58;27.00;44.70
9177;DHT22;4623;54.310;10.112;2022-08-06T10:55:26;27.20;44.90
9177;DHT22;4623;54.310;10.112;2022-08-06T10:57:53;28.00;44.80
9177;DHT22;4623;54.310;10.112;2022-08-06T11:00:19;28.60;45.70
9177;DHT22;4623;54.310;10.112;2022-08-06T11:02:55;28.20;44.20
9177;DHT22;4623;54.310;10.112;2022-08-06T11:05:26;27.90;43.30
9177;DHT22;4623;54.310;10.112;2022-08-06T11:15:49;29.10;41.80
9177;DHT22;4623;54.310;10.112;2022-08-06T11:18:16;29.10;42.20
9177;DHT22;4623;54.310;10.112;2022-08-06T11:20:46;28.90;40.80
9177;DHT22;4623;54.310;10.112;2022-08-06T11:25:48;30.20;43.30
9177;DHT22;4623;54.310;10.112;2022-08-06T11:30:58;30.60;40.70
9177;DHT22;4623;54.310;10.112;2022-08-06T11:41:17;28.60;42.30
9177;DHT22;4623;54.310;10.112;2022-08-06T11:46:36;29.20;43.30
9177;DHT22;4623;54.310;10.112;2022-08-06T11:54:13;26.80;42.10
9177;DHT22;4623;54.310;10.112;2022-08-06T11:59:24;25.60;45.70
9177;DHT22;4623;54.310;10.112;2022-08-06T12:01:50;24.90;46.60
9177;DHT22;4623;54.310;10.112;2022-08-06T12:07:21;25.20;51.00
9177;DHT22;4623;54.310;10.112;2022-08-06T12:10:00;25.90;49.30
9177;DHT22;4623;54.310;10.112;2022-08-06T12:14:54;25.70;46.00
9177;DHT22;4623;54.310;10.112;2022-08-06T12:17:22;25.70;47.10
9177;DHT22;4623;54.310;10.112;2022-08-06T12:19:51;25.70;46.40
9177;DHT22;4623;54.310;10.112;2022-08-06T12:22:18;25.60;46.60
9177;DHT22;4623;54.310;10.112;2022-08-06T12:24:48;24.90;47.60
9177;DHT22;4623;54.310;10.112;2022-08-06T12:27:14;24.70;48.30
9177;DHT22;4623;54.310;10.112;2022-08-06T12:29:41;24.70;48.90
9177;DHT22;4623;54.310;10.112;2022-08-06T12:34:48;24.60;49.80
9177;DHT22;4623;54.310;10.112;2022-08-06T12:37:15;24.50;50.90
9177;DHT22;4623;54.310;10.112;2022-08-06T12:39:41;24.80;50.40
9177;DHT22;4623;54.310;10.112;2022-08-06T12:42:27;25.20;51.00
9177;DHT22;4623;54.310;10.112;2022-08-06T12:44:53;25.10;50.20
9177;DHT22;4623;54.310;10.112;2022-08-06T12:47:19;25.20;48.60
9177;DHT22;4623;54.310;10.112;2022-08-06T12:49:45;25.30;47.00
9177;DHT22;4623;54.310;10.112;2022-08-06T12:52:17;25.60;47.70
9177;DHT22;4623;54.310;10.112;2022-08-06T12:54:47;26.00;46.00
9177;DHT22;4623;54.310;10.112;2022-08-06T12:57:26;26.70;46.60
9177;DHT22;4623;54.310;10.112;2022-08-06T12:59:54;27.20;44.30
9177;DHT22;4623;54.310;10.112;2022-08-06T13:02:21;27.20;43.90
9177;DHT22;4623;54.310;10.112;2022-08-06T13:04:52;26.80;43.60
9177;DHT22;4623;54.310;10.112;2022-08-06T13:07:19;26.00;45.60
9177;DHT22;4623;54.310;10.112;2022-08-06T13:09:46;25.40;47.50
9177;DHT22;4623;54.310;10.112;2022-08-06T13:12:20;24.80;48.90
9177;DHT22;4623;54.310;10.112;2022-08-06T13:14:54;24.30;50.50
9177;DHT22;4623;54.310;10.112;2022-08-06T13:17:22;24.20;51.70
9177;DHT22;4623;54.310;10.112;2022-08-06T13:19:57;24.30;52.10
9177;DHT22;4623;54.310;10.112;2022-08-06T13:22:27;24.20;52.30
9177;DHT22;4623;54.310;10.112;2022-08-06T13:25:13;24.30;52.00
9177;DHT22;4623;54.310;10.112;2022-08-06T13:27:39;24.40;51.30
9177;DHT22;4623;54.310;10.112;2022-08-06T13:30:07;24.20;51.20
9177;DHT22;4623;54.310;10.112;2022-08-06T13:32:33;24.50;53.00
9177;DHT22;4623;54.310;10.112;2022-08-06T13:35:05;25.00;53.10
9177;DHT22;4623;54.310;10.112;2022-08-06T13:37:47;25.00;51.30
9177;DHT22;4623;54.310;10.112;2022-08-06T13:40:15;24.70;51.20
9177;DHT22;4623;54.310;10.112;2022-08-06T13:42:48;24.60;52.30
9177;DHT22;4623;54.310;10.112;2022-08-06T13:45:25;24.60;51.30
9177;DHT22;4623;54.310;10.112;2022-08-06T13:48:04;24.60;52.30
9177;DHT22;4623;54.310;10.112;2022-08-06T13:50:36;24.30;51.80
9177;DHT22;4623;54.310;10.112;2022-08-06T13:53:03;23.90;52.20
9177;DHT22;4623;54.310;10.112;2022-08-06T13:55:28;23.50;53.00
9177;DHT22;4623;54.310;10.112;2022-08-06T13:57:55;23.30;54.40
9177;DHT22;4623;54.310;10.112;2022-08-06T14:00:21;22.90;54.90
9177;DHT22;4623;54.310;10.112;2022-08-06T14:02:47;22.50;56.00
9177;DHT22;4623;54.310;10.112;2022-08-06T14:05:13;22.40;57.10
9177;DHT22;4623;54.310;10.112;2022-08-06T14:07:39;22.10;58.90
9177;DHT22;4623;54.310;10.112;2022-08-06T14:10:05;22.10;62.30
9177;DHT22;4623;54.310;10.112;2022-08-06T14:12:30;22.10;64.90
9177;DHT22;4623;54.310;10.112;2022-08-06T14:14:56;22.10;63.90
9177;DHT22;4623;54.310;10.112;2022-08-06T14:17:22;22.20;61.20
9177;DHT22;4623;54.310;10.112;2022-08-06T14:19:48;22.20;62.70
9177;DHT22;4623;54.310;10.112;2022-08-06T14:22:15;22.30;62.90
9177;DHT22;4623;54.310;10.112;2022-08-06T14:24:41;22.30;61.90
9177;DHT22;4623;54.310;10.112;2022-08-06T14:27:08;22.40;61.10
9177;DHT22;4623;54.310;10.112;2022-08-06T14:29:34;22.40;61.30
9177;DHT22;4623;54.310;10.112;2022-08-06T14:32:04;22.40;60.70
9177;DHT22;4623;54.310;10.112;2022-08-06T14:34:30;22.60;60.40
9177;DHT22;4623;54.310;10.112;2022-08-06T14:36:56;22.60;61.30
9177;DHT22;4623;54.310;10.112;2022-08-06T14:39:22;22.50;62.20
9177;DHT22;4623;54.310;10.112;2022-08-06T14:41:48;22.50;63.30
9177;DHT22;4623;54.310;10.112;2022-08-06T14:44:32;22.50;64.80
9177;DHT22;4623;54.310;10.112;2022-08-06T14:47:16;22.50;67.60
9177;DHT22;4623;54.310;10.112;2022-08-06T14:49:42;22.10;69.20
9177;DHT22;4623;54.310;10.112;2022-08-06T14:52:08;22.30;70.90
9177;DHT22;4623;54.310;10.112;2022-08-06T14:54:35;22.50;71.20
9177;DHT22;4623;54.310;10.112;2022-08-06T14:57:03;22.70;71.00
9177;DHT22;4623;54.310;10.112;2022-08-06T14:59:29;22.80;71.80
9177;DHT22;4623;54.310;10.112;2022-08-06T15:01:54;22.80;70.60
9177;DHT22;4623;54.310;10.112;2022-08-06T15:04:20;22.60;69.50
9177;DHT22;4623;54.310;10.112;2022-08-06T15:06:47;22.30;71.50
9177;DHT22;4623;54.310;10.112;2022-08-06T15:09:12;22.10;73.00
9177;DHT22;4623;54.310;10.112;2022-08-06T15:11:38;21.90;74.70
9177;DHT22;4623;54.310;10.112;2022-08-06T15:14:04;21.70;77.40
9177;DHT22;4623;54.310;10.112;2022-08-06T15:16:30;21.60;77.00
9177;DHT22;4623;54.310;10.112;2022-08-06T15:18:56;21.60;78.60
9177;DHT22;4623;54.310;10.112;2022-08-06T15:21:22;21.60;79.20
9177;DHT22;4623;54.310;10.112;2022-08-06T15:23:48;21.60;80.70
9177;DHT22;4623;54.310;10.112;2022-08-06T15:26:14;21.70;80.20
9177;DHT22;4623;54.310;10.112;2022-08-06T15:28:40;21.70;80.60
9177;DHT22;4623;54.310;10.112;2022-08-06T15:31:06;21.80;81.60
9177;DHT22;4623;54.310;10.112;2022-08-06T15:33:35;21.80;81.60
9177;DHT22;4623;54.310;10.112;2022-08-06T15:36:01;21.80;81.70
9177;DHT22;4623;54.310;10.112;2022-08-06T15:38:27;21.60;80.70
9177;DHT22;4623;54.310;10.112;2022-08-06T15:40:53;21.40;81.90
9177;DHT22;4623;54.310;10.112;2022-08-06T15:43:19;21.20;81.40
9177;DHT22;4623;54.310;10.112;2022-08-06T15:45:50;21.10;83.10
9177;DHT22;4623;54.310;10.112;2022-08-06T15:48:15;21.10;82.80
9177;DHT22;4623;54.310;10.112;2022-08-06T15:50:43;21.20;83.10
9177;DHT22;4623;54.310;10.112;2022-08-06T15:53:09;21.20;83.20
9177;DHT22;4623;54.310;10.112;2022-08-06T15:55:35;21.30;81.70
9177;DHT22;4623;54.310;10.112;2022-08-06T15:58:01;21.30;81.70
9177;DHT22;4623;54.310;10.112;2022-08-06T16:00:27;21.30;82.50
9177;DHT22;4623;54.310;10.112;2022-08-06T16:02:52;21.30;80.90
9177;DHT22;4623;54.310;10.112;2022-08-06T16:05:19;21.20;79.50
9177;DHT22;4623;54.310;10.112;2022-08-06T16:07:48;21.10;79.80
9177;DHT22;4623;54.310;10.112;2022-08-06T16:10:14;21.10;79.40
9177;DHT22;4623;54.310;10.112;2022-08-06T16:12:41;21.10;79.70
9177;DHT22;4623;54.310;10.112;2022-08-06T16:15:07;21.20;78.80
9177;DHT22;4623;54.310;10.112;2022-08-06T16:17:33;21.20;77.50
9177;DHT22;4623;54.310;10.112;2022-08-06T16:19:59;21.20;76.40
9177;DHT22;4623;54.310;10.112;2022-08-06T16:22:25;21.20;74.80
9177;DHT22;4623;54.310;10.112;2022-08-06T16:24:51;21.20;74.80
9177;DHT22;4623;54.310;10.112;2022-08-06T16:27:17;21.30;75.10
9177;DHT22;4623;54.310;10.112;2022-08-06T16:29:46;21.20;75.10
9177;DHT22;4623;54.310;10.112;2022-08-06T16:32:12;21.20;76.10
9177;DHT22;4623;54.310;10.112;2022-08-06T16:34:42;21.10;77.90
9177;DHT22;4623;54.310;10.112;2022-08-06T16:37:08;21.00;79.50
9177;DHT22;4623;54.310;10.112;2022-08-06T16:39:34;20.90;78.90
9177;DHT22;4623;54.310;10.112;2022-08-06T16:42:00;20.80;78.70
9177;DHT22;4623;54.310;10.112;2022-08-06T16:44:26;20.90;79.30
9177;DHT22;4623;54.310;10.112;2022-08-06T16:46:52;20.80;81.20
9177;DHT22;4623;54.310;10.112;2022-08-06T16:49:18;20.70;82.80
9177;DHT22;4623;54.310;10.112;2022-08-06T16:51:44;20.60;85.90
9177;DHT22;4623;54.310;10.112;2022-08-06T16:54:12;20.60;86.10